createdAt,value
2023-10-24T00:01:16.853Z,14.44
2023-10-24T00:03:44.067Z,14.34
2023-10-24T00:06:11.052Z,14.29
2023-10-24T00:08:37.809Z,14.30
2023-10-24T00:14:49.481Z,14.36
2023-10-24T00:15:08.233Z,14.26
2023-10-24T00:17:35.082Z,14.30
2023-10-24T00:20:03.967Z,14.38
2023-10-24T00:22:35.731Z,14.38
2023-10-24T00:25:02.626Z,14.43
2023-10-24T00:28:32.138Z,14.55
2023-10-24T00:31:29.588Z,14.69
2023-10-24T00:33:57.675Z,14.70
2023-10-24T00:36:26.531Z,14.61
2023-10-24T00:42:18.816Z,14.48
2023-10-24T00:44:39.060Z,14.54
2023-10-24T00:44:45.619Z,14.50
2023-10-24T00:47:21.720Z,14.57
2023-10-24T00:50:38.964Z,14.66
2023-10-24T00:53:05.504Z,14.78
2023-10-24T00:55:37.879Z,14.77
2023-10-24T00:58:56.834Z,14.56
2023-10-24T01:01:26.598Z,14.51
2023-10-24T01:03:57.575Z,14.43
2023-10-24T01:06:24.611Z,14.34
2023-10-24T01:08:51.628Z,14.25
2023-10-24T01:11:19.087Z,14.31
2023-10-24T01:16:12.239Z,14.36
2023-10-24T01:16:56.381Z,14.45
2023-10-24T01:19:23.265Z,14.55
2023-10-24T01:21:50.579Z,14.68
2023-10-24T01:24:18.448Z,14.75
2023-10-24T01:26:46.028Z,14.77
2023-10-24T01:29:13.136Z,14.77
2023-10-24T01:31:42.771Z,14.81
2023-10-24T01:34:09.751Z,14.84
2023-10-24T01:36:37.914Z,14.75
2023-10-24T01:39:04.886Z,14.78
2023-10-24T01:42:02.069Z,14.70
2023-10-24T01:44:25.746Z,14.58
2023-10-24T01:46:52.855Z,14.51
2023-10-24T01:49:24.416Z,14.62
2023-10-24T01:52:45.092Z,14.53
2023-10-24T01:55:12.549Z,14.61
2023-10-24T01:57:43.438Z,14.68
2023-10-24T02:01:01.056Z,14.68
2023-10-24T02:03:28.468Z,14.58
2023-10-24T02:05:55.550Z,14.53
2023-10-24T02:08:24.369Z,14.52
2023-10-24T02:10:52.177Z,14.58
2023-10-24T02:13:22.615Z,14.55
2023-10-24T02:15:49.415Z,14.55
2023-10-24T02:18:16.264Z,14.55
2023-10-24T02:20:44.110Z,14.68
2023-10-24T02:23:13.522Z,14.72
2023-10-24T02:25:40.942Z,14.68
2023-10-24T02:28:14.120Z,14.63
2023-10-24T02:30:57.444Z,14.61
2023-10-24T02:33:24.325Z,14.66
2023-10-24T02:35:51.975Z,14.67
2023-10-24T02:38:18.910Z,14.58
2023-10-24T02:40:53.676Z,14.61
2023-10-24T02:43:20.494Z,14.57
2023-10-24T02:45:47.252Z,14.53
2023-10-24T02:48:14.131Z,14.54
2023-10-24T02:50:43.323Z,14.49
2023-10-24T02:53:10.447Z,14.49
2023-10-24T02:55:37.512Z,14.50
2023-10-24T02:58:29.475Z,14.55
2023-10-24T03:00:58.652Z,14.64
2023-10-24T03:03:25.945Z,14.66
2023-10-24T03:05:53.030Z,14.64
2023-10-24T03:10:43.591Z,14.51
2023-10-24T03:11:24.676Z,14.27
2023-10-24T03:13:58.366Z,14.24
2023-10-24T03:16:25.209Z,14.31
2023-10-24T03:19:02.770Z,14.33
2023-10-24T03:21:29.595Z,14.32
2023-10-24T03:24:18.878Z,14.32
2023-10-24T03:26:43.926Z,14.27
2023-10-24T03:29:10.675Z,14.23
2023-10-24T03:31:37.929Z,14.24
2023-10-24T03:34:05.020Z,14.17
2023-10-24T03:36:31.781Z,14.15
2023-10-24T03:38:58.483Z,14.13
2023-10-24T03:41:25.283Z,14.12
2023-10-24T03:43:53.321Z,14.10
2023-10-24T03:46:20.347Z,14.15
2023-10-24T03:48:47.202Z,14.16
2023-10-24T03:51:13.912Z,14.18
2023-10-24T03:53:40.686Z,14.21
2023-10-24T03:56:07.428Z,14.24
2023-10-24T03:58:34.230Z,14.20
2023-10-24T04:01:07.521Z,14.20
2023-10-24T04:03:36.242Z,14.22
2023-10-24T04:06:03.545Z,14.18
2023-10-24T04:08:30.298Z,14.19
2023-10-24T04:10:57.082Z,14.18
2023-10-24T04:13:24.045Z,14.16
2023-10-24T04:15:57.980Z,14.16
2023-10-24T04:18:24.711Z,14.13
2023-10-24T04:20:51.567Z,14.12
2023-10-24T04:23:18.372Z,14.14
2023-10-24T04:25:45.831Z,14.18
2023-10-24T04:28:13.253Z,14.21
2023-10-24T04:30:41.025Z,14.16
2023-10-24T04:33:08.692Z,14.18
2023-10-24T04:35:48.374Z,14.17
2023-10-24T04:38:16.765Z,14.17
2023-10-24T04:40:44.221Z,14.17
2023-10-24T04:43:11.116Z,14.16
2023-10-24T04:45:38.305Z,14.16
2023-10-24T04:48:06.197Z,14.19
2023-10-24T04:50:37.713Z,14.23
2023-10-24T04:53:04.573Z,14.25
2023-10-24T04:55:31.377Z,14.23
2023-10-24T04:57:58.723Z,14.30
2023-10-24T05:00:28.420Z,14.32
2023-10-24T05:02:55.414Z,14.38
2023-10-24T05:05:22.465Z,14.39
2023-10-24T05:07:50.284Z,14.36
2023-10-24T05:10:17.212Z,14.37
2023-10-24T05:12:44.001Z,14.43
2023-10-24T05:15:10.970Z,14.37
2023-10-24T05:17:38.129Z,14.33
2023-10-24T05:20:08.691Z,14.33
2023-10-24T05:22:36.046Z,14.28
2023-10-24T05:25:03.186Z,14.30
2023-10-24T05:27:32.668Z,14.31
2023-10-24T05:29:59.634Z,14.30
2023-10-24T05:32:26.514Z,14.39
2023-10-24T05:34:53.378Z,14.36
2023-10-24T05:37:20.310Z,14.35
2023-10-24T05:39:47.136Z,14.32
2023-10-24T05:42:13.913Z,14.35
2023-10-24T05:44:41.027Z,14.41
2023-10-24T05:47:07.821Z,14.37
2023-10-24T05:49:35.453Z,14.30
2023-10-24T05:52:02.251Z,14.39
2023-10-24T05:54:28.974Z,14.32
2023-10-24T05:56:55.867Z,14.36
2023-10-24T05:59:22.724Z,14.40
2023-10-24T06:01:49.579Z,14.34
2023-10-24T06:04:16.387Z,14.41
2023-10-24T06:06:44.077Z,14.42
2023-10-24T06:09:13.684Z,14.47
2023-10-24T06:11:40.922Z,14.49
2023-10-24T06:14:07.778Z,14.56
2023-10-24T06:16:34.532Z,14.57
2023-10-24T06:19:01.429Z,14.59
2023-10-24T06:21:29.740Z,14.64
2023-10-24T06:23:56.935Z,14.61
2023-10-24T06:26:23.667Z,14.65
2023-10-24T06:28:50.769Z,14.55
2023-10-24T06:31:18.384Z,14.53
2023-10-24T06:33:45.274Z,14.55
2023-10-24T06:36:12.104Z,14.60
2023-10-24T06:38:38.868Z,14.65
2023-10-24T06:41:11.128Z,14.63
2023-10-24T06:43:38.187Z,14.59
2023-10-24T06:46:06.334Z,14.53
2023-10-24T06:48:33.801Z,14.48
2023-10-24T06:51:00.833Z,14.47
2023-10-24T06:53:27.780Z,14.46
2023-10-24T06:56:00.462Z,14.49
2023-10-24T06:58:30.999Z,14.47
2023-10-24T07:00:58.239Z,14.44
2023-10-24T07:03:25.682Z,14.42
2023-10-24T07:05:53.414Z,14.43
2023-10-24T07:08:21.731Z,14.45
2023-10-24T07:10:49.422Z,14.48
2023-10-24T07:13:16.525Z,14.54
2023-10-24T07:15:43.653Z,14.65
2023-10-24T07:18:12.145Z,14.72
2023-10-24T07:20:40.027Z,14.75
2023-10-24T07:23:08.050Z,14.79
2023-10-24T07:25:34.929Z,14.76
2023-10-24T07:28:03.107Z,14.76
2023-10-24T07:30:31.009Z,14.83
2023-10-24T07:32:58.296Z,14.81
2023-10-24T07:35:25.069Z,14.79
2023-10-24T07:37:51.848Z,14.74
2023-10-24T07:40:20.316Z,14.81
2023-10-24T07:42:47.811Z,14.88
2023-10-24T07:45:15.016Z,14.88
2023-10-24T07:47:41.942Z,14.86
2023-10-24T07:50:10.118Z,14.88
2023-10-24T07:52:37.031Z,14.90
2023-10-24T07:55:04.242Z,14.87
2023-10-24T07:57:31.153Z,14.82
2023-10-24T07:59:58.951Z,14.84
2023-10-24T08:02:25.823Z,14.83
2023-10-24T08:04:52.744Z,14.84
2023-10-24T08:07:19.659Z,14.87
2023-10-24T08:09:46.515Z,14.89
2023-10-24T08:12:13.995Z,14.83
2023-10-24T08:14:40.985Z,14.94
2023-10-24T08:17:08.102Z,15.00
2023-10-24T08:19:35.021Z,15.02
2023-10-24T08:22:01.814Z,15.09
2023-10-24T08:24:28.577Z,15.06
2023-10-24T08:27:09.847Z,14.97
2023-10-24T08:29:38.069Z,15.02
2023-10-24T08:32:09.420Z,14.98
2023-10-24T08:34:38.299Z,14.93
2023-10-24T08:37:06.432Z,14.99
2023-10-24T08:39:33.144Z,15.06
2023-10-24T08:41:59.868Z,15.15
2023-10-24T08:44:28.104Z,15.24
2023-10-24T08:46:55.358Z,15.08
2023-10-24T08:49:22.646Z,15.02
2023-10-24T08:51:49.397Z,14.99
2023-10-24T08:54:16.230Z,14.93
2023-10-24T08:56:43.616Z,14.86
2023-10-24T08:59:12.425Z,14.92
2023-10-24T09:01:42.213Z,15.03
2023-10-24T09:04:09.235Z,15.16
2023-10-24T09:06:38.187Z,15.32
2023-10-24T09:09:05.430Z,15.35
2023-10-24T09:11:51.965Z,15.45
2023-10-24T09:14:18.902Z,15.49
2023-10-24T09:16:45.883Z,15.51
2023-10-24T09:19:15.811Z,15.54
2023-10-24T09:21:53.076Z,15.61
2023-10-24T09:24:30.555Z,15.62
2023-10-24T09:26:57.999Z,15.57
2023-10-24T09:29:27.788Z,15.54
2023-10-24T09:32:00.058Z,15.53
2023-10-24T09:34:28.376Z,15.47
2023-10-24T09:37:07.371Z,15.54
2023-10-24T09:39:58.032Z,15.63
2023-10-24T09:42:36.207Z,15.58
2023-10-24T09:45:07.342Z,15.61
2023-10-24T09:47:41.165Z,15.65
2023-10-24T09:50:11.378Z,15.81
2023-10-24T09:52:39.543Z,15.96
2023-10-24T09:55:07.330Z,16.04
2023-10-24T09:57:35.162Z,16.01
2023-10-24T10:00:04.662Z,15.98
2023-10-24T10:02:41.977Z,15.88
2023-10-24T10:05:09.371Z,15.61
2023-10-24T10:07:38.226Z,15.58
2023-10-24T10:10:06.636Z,15.52
2023-10-24T10:12:35.026Z,15.50
2023-10-24T10:15:23.636Z,15.60
2023-10-24T10:18:21.919Z,15.59
2023-10-24T10:21:09.234Z,15.95
2023-10-24T10:23:48.562Z,16.34
2023-10-24T10:26:30.906Z,16.53
2023-10-24T10:29:33.334Z,16.41
2023-10-24T10:32:39.355Z,16.18
2023-10-24T10:35:07.241Z,16.18
2023-10-24T10:37:35.736Z,16.33
2023-10-24T10:40:19.825Z,16.42
2023-10-24T10:42:49.392Z,16.36
2023-10-24T10:45:29.945Z,15.89
2023-10-24T10:48:05.854Z,16.14
2023-10-24T10:50:34.731Z,16.44
2023-10-24T10:53:14.277Z,16.66
2023-10-24T10:55:53.498Z,16.55
2023-10-24T10:58:33.039Z,16.37
2023-10-24T11:01:23.414Z,16.71
2023-10-24T11:03:50.837Z,17.02
2023-10-24T11:06:18.821Z,17.14
2023-10-24T11:09:11.670Z,17.18
2023-10-24T11:11:41.500Z,17.12
2023-10-24T11:14:16.290Z,16.91
2023-10-24T11:16:44.262Z,16.74
2023-10-24T11:19:19.695Z,16.63
2023-10-24T11:21:54.448Z,16.59
2023-10-24T11:24:23.095Z,16.53
2023-10-24T11:26:57.291Z,16.48
2023-10-24T11:29:24.328Z,16.49
2023-10-24T11:31:51.978Z,16.37
2023-10-24T11:34:20.119Z,16.43
2023-10-24T11:36:47.349Z,16.44
2023-10-24T11:39:17.421Z,16.52
2023-10-24T11:41:45.093Z,16.58
2023-10-24T11:44:18.889Z,16.53
2023-10-24T11:46:46.224Z,16.70
2023-10-24T11:49:13.288Z,16.75
2023-10-24T11:51:40.467Z,16.77
2023-10-24T11:54:08.851Z,16.81
2023-10-24T11:56:35.755Z,16.76
2023-10-24T11:59:04.639Z,16.85
2023-10-24T12:01:34.802Z,16.94
2023-10-24T12:04:02.406Z,16.90
2023-10-24T12:06:30.689Z,17.03
2023-10-24T12:08:59.349Z,17.07
2023-10-24T12:11:26.448Z,16.83
2023-10-24T12:13:53.577Z,16.76
2023-10-24T12:16:20.554Z,16.56
2023-10-24T12:18:47.330Z,16.71
2023-10-24T12:21:15.026Z,16.93
2023-10-24T12:23:41.978Z,17.00
2023-10-24T12:26:09.197Z,16.98
2023-10-24T12:28:37.586Z,17.08
2023-10-24T12:31:07.517Z,16.98
2023-10-24T12:33:34.329Z,17.06
2023-10-24T12:36:02.253Z,17.15
2023-10-24T12:38:30.177Z,17.09
2023-10-24T12:40:57.606Z,17.18
2023-10-24T12:43:25.080Z,17.24
2023-10-24T12:45:52.562Z,17.19
2023-10-24T12:48:20.694Z,17.21
2023-10-24T12:50:48.131Z,17.06
2023-10-24T12:53:15.732Z,17.11
2023-10-24T12:55:42.655Z,17.21
2023-10-24T12:58:09.634Z,17.22
2023-10-24T13:00:36.800Z,17.31
2023-10-24T13:03:15.645Z,17.46
2023-10-24T13:05:47.575Z,17.40
2023-10-24T13:08:14.586Z,17.53
2023-10-24T13:10:43.620Z,17.48
2023-10-24T13:13:10.580Z,17.55
2023-10-24T13:15:38.049Z,17.42
2023-10-24T13:18:05.146Z,17.15
2023-10-24T13:20:31.886Z,17.01
2023-10-24T13:22:59.012Z,16.94
2023-10-24T13:25:25.907Z,16.84
2023-10-24T13:27:52.770Z,16.73
2023-10-24T13:30:33.786Z,16.61
2023-10-24T13:33:06.665Z,16.55
2023-10-24T13:38:03.665Z,16.41
2023-10-24T13:40:30.450Z,16.41
2023-10-24T13:42:57.460Z,16.29
2023-10-24T13:45:26.310Z,16.19
2023-10-24T13:47:53.533Z,16.18
2023-10-24T13:50:20.456Z,16.21
2023-10-24T13:52:49.782Z,16.28
2023-10-24T13:55:17.270Z,16.20
2023-10-24T13:57:44.755Z,16.20
2023-10-24T14:00:12.457Z,16.14
2023-10-24T14:02:39.569Z,16.12
2023-10-24T14:05:07.048Z,16.17
2023-10-24T14:07:34.119Z,16.14
2023-10-24T14:10:00.960Z,16.07
2023-10-24T14:12:27.744Z,16.00
2023-10-24T14:14:54.596Z,16.07
2023-10-24T14:17:21.425Z,16.09
2023-10-24T14:19:50.286Z,16.13
2023-10-24T14:22:17.038Z,16.12
2023-10-24T14:24:43.866Z,16.11
2023-10-24T14:27:10.703Z,16.18
2023-10-24T14:29:37.577Z,16.11
2023-10-24T14:32:04.888Z,16.10
2023-10-24T14:34:31.678Z,16.07
2023-10-24T14:36:58.634Z,16.08
2023-10-24T14:39:25.559Z,16.08
2023-10-24T14:41:52.459Z,16.08
2023-10-24T14:44:19.208Z,15.90
2023-10-24T14:46:46.354Z,15.85
2023-10-24T14:49:16.838Z,15.90
2023-10-24T14:51:44.530Z,15.91
2023-10-24T14:54:11.456Z,15.83
2023-10-24T14:56:43.698Z,15.83
2023-10-24T14:59:10.829Z,15.83
2023-10-24T15:01:37.844Z,15.78
2023-10-24T15:04:05.171Z,15.76
2023-10-24T15:06:32.695Z,15.82
2023-10-24T15:09:00.628Z,15.73
2023-10-24T15:11:27.602Z,15.86
2023-10-24T15:13:54.429Z,15.67
2023-10-24T15:16:23.673Z,15.78
2023-10-24T15:18:51.318Z,15.78
2023-10-24T15:21:18.152Z,15.78
2023-10-24T15:23:44.915Z,15.81
2023-10-24T15:26:11.986Z,15.65
2023-10-24T15:28:39.186Z,15.65
2023-10-24T15:31:06.372Z,15.73
2023-10-24T15:33:34.073Z,15.79
2023-10-24T15:36:02.441Z,15.75
2023-10-24T15:38:29.565Z,15.80
2023-10-24T15:41:02.277Z,15.75
2023-10-24T15:43:30.865Z,15.71
2023-10-24T15:46:21.156Z,15.70
2023-10-24T15:48:49.136Z,15.70
2023-10-24T15:51:16.548Z,15.64
2023-10-24T15:53:43.271Z,15.68
2023-10-24T15:56:10.602Z,15.67
2023-10-24T15:58:42.161Z,15.64
2023-10-24T16:01:17.708Z,15.65
2023-10-24T16:03:46.372Z,15.57
2023-10-24T16:06:18.178Z,15.53
2023-10-24T16:08:45.079Z,15.52
2023-10-24T16:11:12.565Z,15.49
2023-10-24T16:13:39.705Z,15.57
2023-10-24T16:16:06.780Z,15.56
2023-10-24T16:18:33.842Z,15.58
2023-10-24T16:21:03.168Z,15.59
2023-10-24T16:23:31.451Z,15.57
2023-10-24T16:26:01.273Z,15.65
2023-10-24T16:28:29.155Z,15.59
2023-10-24T16:30:56.670Z,15.58
2023-10-24T16:33:23.786Z,15.64
2023-10-24T16:35:52.519Z,15.60
2023-10-24T16:38:19.369Z,15.62
2023-10-24T16:40:46.894Z,15.63
2023-10-24T16:43:13.944Z,15.60
2023-10-24T16:45:40.862Z,15.65
2023-10-24T16:48:08.760Z,15.63
2023-10-24T16:50:38.781Z,15.67
2023-10-24T16:53:06.377Z,15.56
2023-10-24T16:55:33.966Z,15.55
2023-10-24T16:58:00.928Z,15.49
2023-10-24T17:00:28.211Z,15.45
2023-10-24T17:02:55.116Z,15.40
2023-10-24T17:05:22.226Z,15.39
2023-10-24T17:07:49.362Z,15.39
2023-10-24T17:10:18.411Z,15.41
2023-10-24T17:12:45.355Z,15.37
2023-10-24T17:15:12.575Z,15.40
2023-10-24T17:17:39.603Z,15.36
2023-10-24T17:20:07.544Z,15.38
2023-10-24T17:22:34.723Z,15.40
2023-10-24T17:25:03.592Z,15.33
2023-10-24T17:27:32.818Z,15.28
2023-10-24T17:29:59.883Z,15.29
2023-10-24T17:32:26.754Z,15.23
2023-10-24T17:34:53.878Z,15.20
2023-10-24T17:37:20.950Z,15.17
2023-10-24T17:39:48.564Z,15.16
2023-10-24T17:42:15.670Z,15.09
2023-10-24T17:44:44.494Z,15.04
2023-10-24T17:47:11.508Z,15.09
2023-10-24T17:49:38.659Z,15.19
2023-10-24T17:52:05.857Z,15.19
2023-10-24T17:54:32.672Z,15.37
2023-10-24T17:56:59.489Z,15.36
2023-10-24T17:59:26.748Z,15.19
2023-10-24T18:01:53.648Z,15.19
2023-10-24T18:04:22.322Z,15.16
2023-10-24T18:06:49.811Z,15.21
2023-10-24T18:09:16.973Z,15.23
2023-10-24T18:11:45.448Z,15.25
2023-10-24T18:14:12.866Z,15.26
2023-10-24T18:16:39.933Z,15.25
2023-10-24T18:19:06.806Z,15.23
2023-10-24T18:21:33.694Z,15.21
2023-10-24T18:24:00.571Z,15.15
2023-10-24T18:26:27.731Z,15.15
2023-10-24T18:28:54.936Z,15.24
2023-10-24T18:31:22.102Z,15.26
2023-10-24T18:33:49.903Z,15.18
2023-10-24T18:36:17.791Z,15.22
2023-10-24T18:38:45.124Z,15.20
2023-10-24T18:41:13.993Z,15.21
2023-10-24T18:43:41.047Z,15.19
2023-10-24T18:46:09.758Z,15.18
2023-10-24T18:48:37.643Z,15.16
2023-10-24T18:51:12.135Z,15.09
2023-10-24T18:53:39.886Z,15.10
2023-10-24T18:56:06.807Z,15.11
2023-10-24T18:58:34.090Z,15.02
2023-10-24T19:01:03.985Z,15.11
2023-10-24T19:03:32.283Z,15.08
2023-10-24T19:05:59.672Z,15.00
2023-10-24T19:08:26.555Z,14.91
2023-10-24T19:10:53.704Z,14.82
2023-10-24T19:13:21.158Z,14.79
2023-10-24T19:15:48.516Z,14.77
2023-10-24T19:18:15.886Z,14.74
2023-10-24T19:20:46.073Z,14.78
2023-10-24T19:23:14.652Z,14.80
2023-10-24T19:25:42.940Z,14.74
2023-10-24T19:28:12.247Z,14.74
2023-10-24T19:30:41.925Z,14.71
2023-10-24T19:33:09.092Z,14.70
2023-10-24T19:35:37.312Z,14.67
2023-10-24T19:38:07.210Z,14.65
2023-10-24T19:40:38.859Z,14.61
2023-10-24T19:43:06.714Z,14.58
2023-10-24T19:45:34.157Z,14.56
2023-10-24T19:48:12.916Z,14.60
2023-10-24T19:50:40.547Z,14.59
2023-10-24T19:53:07.773Z,14.63
2023-10-24T19:55:44.246Z,14.63
2023-10-24T19:58:14.147Z,14.63
2023-10-24T20:00:42.476Z,14.64
2023-10-24T20:03:11.022Z,14.66
2023-10-24T20:05:49.420Z,14.59
2023-10-24T20:08:46.632Z,14.59
2023-10-24T20:12:37.591Z,14.58
2023-10-24T20:14:13.440Z,14.56
2023-10-24T20:16:44.727Z,14.49
2023-10-24T20:19:11.810Z,14.42
2023-10-24T20:21:38.888Z,14.34
2023-10-24T20:24:06.237Z,14.20
2023-10-24T20:26:37.592Z,14.11
2023-10-24T20:29:04.705Z,14.02
2023-10-24T20:31:31.622Z,13.94
2023-10-24T20:34:18.861Z,13.93
2023-10-24T20:37:39.701Z,13.85
2023-10-24T20:39:50.890Z,13.83
2023-10-24T20:42:20.639Z,13.79
2023-10-24T20:44:53.626Z,13.72
2023-10-24T20:47:21.557Z,13.66
2023-10-24T20:49:54.478Z,13.64
2023-10-24T20:52:24.224Z,13.59
2023-10-24T20:54:53.204Z,13.60
2023-10-24T20:57:20.165Z,13.55
2023-10-24T20:59:46.962Z,13.58
2023-10-24T21:02:13.905Z,13.49
2023-10-24T21:04:42.181Z,13.48
2023-10-24T21:07:09.397Z,13.47
2023-10-24T21:09:36.355Z,13.41
2023-10-24T21:12:05.661Z,13.35
2023-10-24T21:14:33.276Z,13.30
2023-10-24T21:17:00.301Z,13.29
2023-10-24T21:19:27.600Z,13.29
2023-10-24T21:21:54.551Z,13.34
2023-10-24T21:24:23.998Z,13.28
2023-10-24T21:26:51.223Z,13.25
2023-10-24T21:29:18.039Z,13.27
2023-10-24T21:31:47.138Z,13.26
2023-10-24T21:34:14.221Z,13.26
2023-10-24T21:36:41.175Z,13.23
2023-10-24T21:39:40.418Z,13.26
2023-10-24T21:42:04.639Z,13.24
2023-10-24T21:45:25.527Z,13.16
2023-10-24T21:48:12.016Z,13.10
2023-10-24T21:50:48.318Z,13.02
2023-10-24T21:53:17.565Z,12.99
2023-10-24T21:55:51.028Z,12.96
2023-10-24T21:58:40.756Z,13.07
2023-10-24T22:01:13.938Z,13.07
2023-10-24T22:03:40.990Z,13.02
2023-10-24T22:06:07.922Z,13.10
2023-10-24T22:08:34.890Z,13.01
2023-10-24T22:14:13.366Z,12.95
2023-10-24T22:14:42.796Z,12.92
2023-10-24T22:17:10.480Z,12.90
2023-10-24T22:19:37.445Z,12.86
2023-10-24T22:22:04.425Z,12.88
2023-10-24T22:24:31.701Z,12.91
2023-10-24T22:26:58.522Z,12.90
2023-10-24T22:29:25.369Z,12.94
2023-10-24T22:31:54.213Z,12.90
2023-10-24T22:34:21.756Z,12.92
2023-10-24T22:36:50.690Z,13.00
2023-10-24T22:39:17.760Z,12.96
2023-10-24T22:41:44.790Z,12.94
2023-10-24T22:44:11.908Z,12.88
2023-10-24T22:46:41.551Z,12.91
2023-10-24T22:49:09.490Z,12.92
2023-10-24T22:51:38.517Z,12.82
2023-10-24T22:54:08.326Z,12.79
2023-10-24T22:56:37.425Z,12.80
2023-10-24T22:59:06.874Z,12.79
2023-10-24T23:01:58.681Z,12.74
2023-10-24T23:04:26.029Z,12.67
2023-10-24T23:06:54.029Z,12.64
2023-10-24T23:09:21.691Z,12.68
2023-10-24T23:11:48.544Z,12.64
2023-10-24T23:14:19.740Z,12.63
2023-10-24T23:16:46.848Z,12.57
2023-10-24T23:19:13.923Z,12.58
2023-10-24T23:21:40.846Z,12.56
2023-10-24T23:24:08.073Z,12.54
2023-10-24T23:26:35.259Z,12.59
2023-10-24T23:29:02.159Z,12.48
2023-10-24T23:31:29.080Z,12.52
2023-10-24T23:33:58.231Z,12.55
2023-10-24T23:36:25.108Z,12.54
2023-10-24T23:38:52.079Z,12.55
2023-10-24T23:41:21.810Z,12.54
2023-10-24T23:43:48.755Z,12.56
2023-10-24T23:46:15.676Z,12.51
2023-10-24T23:48:42.611Z,12.46
2023-10-24T23:51:09.459Z,12.43
2023-10-24T23:53:36.312Z,12.45
2023-10-24T23:56:03.266Z,12.48
2023-10-24T23:58:45.223Z,12.51
